sensor_id;sensor_type;location;lat;lon;timestamp;temperature;humidity
15407;DHT22;7802;51.568;6.364;2022-07-29T00:02:06;19.10;99.90
15407;DHT22;7802;51.568;6.364;2022-07-29T00:04:55;19.10;99.90
15407;DHT22;7802;51.568;6.364;2022-07-29T00:07:45;19.00;99.90
15407;DHT22;7802;51.568;6.364;2022-07-29T00:10:34;18.90;99.90
15407;DHT22;7802;51.568;6.364;2022-07-29T00:13:22;18.80;99.90
15407;DHT22;7802;51.568;6.364;2022-07-29T00:16:19;18.80;99.90
15407;DHT22;7802;51.568;6.364;2022-07-29T00:19:07;18.90;99.90
15407;DHT22;7802;51.568;6.364;2022-07-29T00:21:57;18.80;99.90
15407;DHT22;7802;51.568;6.364;2022-07-29T00:24:48;18.80;99.90
15407;DHT22;7802;51.568;6.364;2022-07-29T00:27:37;18.70;99.90
15407;DHT22;7802;51.568;6.364;2022-07-29T00:30:26;18.70;99.90
15407;DHT22;7802;51.568;6.364;2022-07-29T00:33:15;18.70;99.90
15407;DHT22;7802;51.568;6.364;2022-07-29T00:36:04;18.80;99.90
15407;DHT22;7802;51.568;6.364;2022-07-29T00:38:52;18.70;99.90
15407;DHT22;7802;51.568;6.364;2022-07-29T00:41:42;18.60;99.90
15407;DHT22;7802;51.568;6.364;2022-07-29T00:44:30;18.60;99.90
15407;DHT22;7802;51.568;6.364;2022-07-29T00:47:19;18.50;99.90
15407;DHT22;7802;51.568;6.364;2022-07-29T00:50:10;18.60;99.90
15407;DHT22;7802;51.568;6.364;2022-07-29T00:52:59;18.50;99.90
15407;DHT22;7802;51.568;6.364;2022-07-29T00:55:48;18.40;99.90
15407;DHT22;7802;51.568;6.364;2022-07-29T00:58:40;18.50;99.90
15407;DHT22;7802;51.568;6.364;2022-07-29T01:01:28;18.60;99.90
15407;DHT22;7802;51.568;6.364;2022-07-29T01:04:17;18.40;99.90
15407;DHT22;7802;51.568;6.364;2022-07-29T01:07:06;18.40;99.90
15407;DHT22;7802;51.568;6.364;2022-07-29T01:09:55;18.40;99.90
15407;DHT22;7802;51.568;6.364;2022-07-29T01:12:47;18.30;99.90
15407;DHT22;7802;51.568;6.364;2022-07-29T01:15:44;18.40;99.90
15407;DHT22;7802;51.568;6.364;2022-07-29T01:18:40;18.30;99.90
15407;DHT22;7802;51.568;6.364;2022-07-29T01:21:46;18.30;99.90
15407;DHT22;7802;51.568;6.364;2022-07-29T01:28:17;18.20;99.90
15407;DHT22;7802;51.568;6.364;2022-07-29T01:31:16;18.90;99.90
15407;DHT22;7802;51.568;6.364;2022-07-29T01:34:16;19.30;99.90
15407;DHT22;7802;51.568;6.364;2022-07-29T01:37:10;18.20;99.90
15407;DHT22;7802;51.568;6.364;2022-07-29T01:40:03;18.20;99.90
15407;DHT22;7802;51.568;6.364;2022-07-29T01:42:56;18.10;99.90
15407;DHT22;7802;51.568;6.364;2022-07-29T01:45:49;18.20;99.90
15407;DHT22;7802;51.568;6.364;2022-07-29T01:48:44;18.00;99.90
15407;DHT22;7802;51.568;6.364;2022-07-29T01:51:40;18.00;99.90
15407;DHT22;7802;51.568;6.364;2022-07-29T01:54:34;17.80;99.90
15407;DHT22;7802;51.568;6.364;2022-07-29T01:57:27;17.70;99.90
15407;DHT22;7802;51.568;6.364;2022-07-29T02:00:17;17.80;99.90
15407;DHT22;7802;51.568;6.364;2022-07-29T02:03:09;17.80;99.90
15407;DHT22;7802;51.568;6.364;2022-07-29T02:06:01;17.70;99.90
15407;DHT22;7802;51.568;6.364;2022-07-29T02:08:52;17.80;99.90
15407;DHT22;7802;51.568;6.364;2022-07-29T02:11:47;17.80;99.90
15407;DHT22;7802;51.568;6.364;2022-07-29T02:14:39;17.80;99.90
15407;DHT22;7802;51.568;6.364;2022-07-29T02:17:32;17.90;99.90
15407;DHT22;7802;51.568;6.364;2022-07-29T02:20:27;17.90;99.90
15407;DHT22;7802;51.568;6.364;2022-07-29T02:23:20;17.90;99.90
15407;DHT22;7802;51.568;6.364;2022-07-29T02:26:09;17.90;99.90
15407;DHT22;7802;51.568;6.364;2022-07-29T02:29:00;17.90;99.90
15407;DHT22;7802;51.568;6.364;2022-07-29T02:31:50;17.90;99.90
15407;DHT22;7802;51.568;6.364;2022-07-29T02:34:40;17.70;99.90
15407;DHT22;7802;51.568;6.364;2022-07-29T02:37:30;17.60;99.90
15407;DHT22;7802;51.568;6.364;2022-07-29T02:40:21;17.60;99.90
15407;DHT22;7802;51.568;6.364;2022-07-29T02:43:11;17.60;99.90
15407;DHT22;7802;51.568;6.364;2022-07-29T02:46:00;17.40;99.90
15407;DHT22;7802;51.568;6.364;2022-07-29T02:49:06;17.40;99.90
15407;DHT22;7802;51.568;6.364;2022-07-29T02:52:00;19.00;99.90
15407;DHT22;7802;51.568;6.364;2022-07-29T02:54:54;17.30;99.90
15407;DHT22;7802;51.568;6.364;2022-07-29T02:57:49;17.30;99.90
15407;DHT22;7802;51.568;6.364;2022-07-29T03:00:42;17.30;99.90
15407;DHT22;7802;51.568;6.364;2022-07-29T03:03:36;17.20;99.90
15407;DHT22;7802;51.568;6.364;2022-07-29T03:06:26;18.20;99.90
15407;DHT22;7802;51.568;6.364;2022-07-29T03:09:25;17.30;99.90
15407;DHT22;7802;51.568;6.364;2022-07-29T03:12:15;17.20;99.90
15407;DHT22;7802;51.568;6.364;2022-07-29T03:15:07;17.10;99.90
15407;DHT22;7802;51.568;6.364;2022-07-29T03:17:56;17.10;99.90
15407;DHT22;7802;51.568;6.364;2022-07-29T03:20:46;17.00;99.90
15407;DHT22;7802;51.568;6.364;2022-07-29T03:23:35;17.00;99.90
15407;DHT22;7802;51.568;6.364;2022-07-29T03:26:24;16.90;99.90
15407;DHT22;7802;51.568;6.364;2022-07-29T03:29:13;16.90;99.90
15407;DHT22;7802;51.568;6.364;2022-07-29T03:32:07;16.80;99.90
15407;DHT22;7802;51.568;6.364;2022-07-29T03:34:56;16.70;99.90
15407;DHT22;7802;51.568;6.364;2022-07-29T03:37:46;16.70;99.90
15407;DHT22;7802;51.568;6.364;2022-07-29T03:40:38;16.60;99.90
15407;DHT22;7802;51.568;6.364;2022-07-29T03:43:31;16.70;99.90
15407;DHT22;7802;51.568;6.364;2022-07-29T03:46:22;16.80;99.90
15407;DHT22;7802;51.568;6.364;2022-07-29T03:49:15;16.70;99.90
15407;DHT22;7802;51.568;6.364;2022-07-29T03:52:05;16.70;99.90
15407;DHT22;7802;51.568;6.364;2022-07-29T03:54:54;16.80;99.90
15407;DHT22;7802;51.568;6.364;2022-07-29T03:57:44;16.80;99.90
15407;DHT22;7802;51.568;6.364;2022-07-29T04:00:33;16.90;99.90
15407;DHT22;7802;51.568;6.364;2022-07-29T04:03:22;16.90;99.90
15407;DHT22;7802;51.568;6.364;2022-07-29T04:06:13;16.90;99.90
15407;DHT22;7802;51.568;6.364;2022-07-29T04:09:02;16.80;99.90
15407;DHT22;7802;51.568;6.364;2022-07-29T04:11:55;16.90;99.90
15407;DHT22;7802;51.568;6.364;2022-07-29T04:14:50;17.00;99.90
15407;DHT22;7802;51.568;6.364;2022-07-29T04:17:38;16.90;99.90
15407;DHT22;7802;51.568;6.364;2022-07-29T04:20:27;16.90;99.90
15407;DHT22;7802;51.568;6.364;2022-07-29T04:23:17;17.00;99.90
15407;DHT22;7802;51.568;6.364;2022-07-29T04:26:06;17.00;99.90
15407;DHT22;7802;51.568;6.364;2022-07-29T04:28:57;17.00;99.90
15407;DHT22;7802;51.568;6.364;2022-07-29T04:31:45;16.90;99.90
15407;DHT22;7802;51.568;6.364;2022-07-29T04:34:34;16.70;99.90
15407;DHT22;7802;51.568;6.364;2022-07-29T04:37:23;16.60;99.90
15407;DHT22;7802;51.568;6.364;2022-07-29T04:40:14;16.40;99.90
15407;DHT22;7802;51.568;6.364;2022-07-29T04:43:02;16.30;99.90
15407;DHT22;7802;51.568;6.364;2022-07-29T04:45:52;16.30;99.90
15407;DHT22;7802;51.568;6.364;2022-07-29T04:48:41;16.20;99.90
15407;DHT22;7802;51.568;6.364;2022-07-29T04:51:30;16.30;99.90
15407;DHT22;7802;51.568;6.364;2022-07-29T04:54:19;16.30;99.90
15407;DHT22;7802;51.568;6.364;2022-07-29T04:57:09;16.30;99.90
15407;DHT22;7802;51.568;6.364;2022-07-29T04:59:57;16.30;99.90
15407;DHT22;7802;51.568;6.364;2022-07-29T05:02:46;16.30;99.90
15407;DHT22;7802;51.568;6.364;2022-07-29T05:05:35;16.20;99.90
15407;DHT22;7802;51.568;6.364;2022-07-29T05:08:23;16.10;99.90
15407;DHT22;7802;51.568;6.364;2022-07-29T05:11:12;16.00;99.90
15407;DHT22;7802;51.568;6.364;2022-07-29T05:14:09;16.00;99.90
15407;DHT22;7802;51.568;6.364;2022-07-29T05:16:57;15.90;99.90
15407;DHT22;7802;51.568;6.364;2022-07-29T05:19:46;15.90;99.90
15407;DHT22;7802;51.568;6.364;2022-07-29T05:22:35;16.00;99.90
15407;DHT22;7802;51.568;6.364;2022-07-29T05:25:24;15.80;99.90
15407;DHT22;7802;51.568;6.364;2022-07-29T05:28:33;15.90;99.90
15407;DHT22;7802;51.568;6.364;2022-07-29T05:31:23;15.90;99.90
15407;DHT22;7802;51.568;6.364;2022-07-29T05:34:12;15.90;99.90
15407;DHT22;7802;51.568;6.364;2022-07-29T05:37:01;15.90;99.90
15407;DHT22;7802;51.568;6.364;2022-07-29T05:39:50;15.90;99.90
15407;DHT22;7802;51.568;6.364;2022-07-29T05:42:43;15.90;99.90
15407;DHT22;7802;51.568;6.364;2022-07-29T05:45:32;16.00;99.90
15407;DHT22;7802;51.568;6.364;2022-07-29T05:48:37;16.10;99.90
15407;DHT22;7802;51.568;6.364;2022-07-29T05:51:26;16.00;99.90
15407;DHT22;7802;51.568;6.364;2022-07-29T05:54:14;16.00;99.90
15407;DHT22;7802;51.568;6.364;2022-07-29T05:57:04;16.10;99.90
15407;DHT22;7802;51.568;6.364;2022-07-29T05:59:53;16.10;99.90
15407;DHT22;7802;51.568;6.364;2022-07-29T06:02:41;16.10;99.90
15407;DHT22;7802;51.568;6.364;2022-07-29T06:05:32;16.00;99.90
15407;DHT22;7802;51.568;6.364;2022-07-29T06:08:20;16.10;99.90
15407;DHT22;7802;51.568;6.364;2022-07-29T06:11:09;16.00;99.90
15407;DHT22;7802;51.568;6.364;2022-07-29T06:13:58;16.00;99.90
15407;DHT22;7802;51.568;6.364;2022-07-29T06:16:46;16.00;99.90
15407;DHT22;7802;51.568;6.364;2022-07-29T06:19:35;17.50;99.90
15407;DHT22;7802;51.568;6.364;2022-07-29T06:22:26;16.00;99.90
15407;DHT22;7802;51.568;6.364;2022-07-29T06:25:14;16.00;99.90
15407;DHT22;7802;51.568;6.364;2022-07-29T06:28:03;16.10;99.90
15407;DHT22;7802;51.568;6.364;2022-07-29T06:30:52;16.10;99.90
15407;DHT22;7802;51.568;6.364;2022-07-29T06:33:41;16.20;99.90
15407;DHT22;7802;51.568;6.364;2022-07-29T06:36:29;16.20;99.90
15407;DHT22;7802;51.568;6.364;2022-07-29T06:39:20;16.10;99.90
15407;DHT22;7802;51.568;6.364;2022-07-29T06:42:08;16.30;99.90
15407;DHT22;7802;51.568;6.364;2022-07-29T06:44:57;16.40;99.90
15407;DHT22;7802;51.568;6.364;2022-07-29T06:47:46;16.60;99.90
15407;DHT22;7802;51.568;6.364;2022-07-29T06:50:36;16.80;99.90
15407;DHT22;7802;51.568;6.364;2022-07-29T06:53:24;16.70;99.90
15407;DHT22;7802;51.568;6.364;2022-07-29T06:56:14;16.60;99.90
15407;DHT22;7802;51.568;6.364;2022-07-29T06:59:03;16.60;99.90
15407;DHT22;7802;51.568;6.364;2022-07-29T07:01:52;16.70;99.90
15407;DHT22;7802;51.568;6.364;2022-07-29T07:04:41;16.60;99.90
15407;DHT22;7802;51.568;6.364;2022-07-29T07:07:29;16.50;99.90
15407;DHT22;7802;51.568;6.364;2022-07-29T07:10:18;16.40;99.90
15407;DHT22;7802;51.568;6.364;2022-07-29T07:13:08;16.40;99.90
15407;DHT22;7802;51.568;6.364;2022-07-29T07:15:57;16.40;99.90
15407;DHT22;7802;51.568;6.364;2022-07-29T07:18:46;16.40;99.90
15407;DHT22;7802;51.568;6.364;2022-07-29T07:21:34;16.40;99.90
15407;DHT22;7802;51.568;6.364;2022-07-29T07:24:23;16.50;99.90
15407;DHT22;7802;51.568;6.364;2022-07-29T07:27:12;16.40;99.90
15407;DHT22;7802;51.568;6.364;2022-07-29T07:30:03;16.30;99.90
15407;DHT22;7802;51.568;6.364;2022-07-29T07:32:52;16.40;99.90
15407;DHT22;7802;51.568;6.364;2022-07-29T07:35:41;16.30;99.90
15407;DHT22;7802;51.568;6.364;2022-07-29T07:38:31;16.30;99.90
15407;DHT22;7802;51.568;6.364;2022-07-29T07:41:20;16.30;99.90
15407;DHT22;7802;51.568;6.364;2022-07-29T07:44:09;16.40;99.90
15407;DHT22;7802;51.568;6.364;2022-07-29T07:47:04;16.50;99.90
15407;DHT22;7802;51.568;6.364;2022-07-29T07:49:58;16.60;99.90
15407;DHT22;7802;51.568;6.364;2022-07-29T07:52:48;16.70;99.90
15407;DHT22;7802;51.568;6.364;2022-07-29T07:55:40;16.80;99.90
15407;DHT22;7802;51.568;6.364;2022-07-29T07:58:48;16.80;99.90
15407;DHT22;7802;51.568;6.364;2022-07-29T08:01:37;17.00;99.90
15407;DHT22;7802;51.568;6.364;2022-07-29T08:04:43;17.00;99.90
15407;DHT22;7802;51.568;6.364;2022-07-29T08:07:32;16.80;99.90
15407;DHT22;7802;51.568;6.364;2022-07-29T08:10:21;16.80;99.90
15407;DHT22;7802;51.568;6.364;2022-07-29T08:13:25;17.20;99.90
15407;DHT22;7802;51.568;6.364;2022-07-29T08:16:15;16.90;99.90
15407;DHT22;7802;51.568;6.364;2022-07-29T08:19:03;16.90;99.90
15407;DHT22;7802;51.568;6.364;2022-07-29T08:21:54;17.00;99.90
15407;DHT22;7802;51.568;6.364;2022-07-29T08:24:43;16.90;99.90
15407;DHT22;7802;51.568;6.364;2022-07-29T08:27:33;17.10;99.90
15407;DHT22;7802;51.568;6.364;2022-07-29T08:30:30;17.20;99.90
15407;DHT22;7802;51.568;6.364;2022-07-29T08:33:19;17.30;99.90
15407;DHT22;7802;51.568;6.364;2022-07-29T08:36:07;17.90;99.90
15407;DHT22;7802;51.568;6.364;2022-07-29T08:38:58;17.20;99.90
15407;DHT22;7802;51.568;6.364;2022-07-29T08:41:47;17.40;99.90
15407;DHT22;7802;51.568;6.364;2022-07-29T08:44:43;17.50;99.90
15407;DHT22;7802;51.568;6.364;2022-07-29T08:47:33;17.60;99.90
15407;DHT22;7802;51.568;6.364;2022-07-29T08:50:23;17.50;99.90
15407;DHT22;7802;51.568;6.364;2022-07-29T08:53:13;17.50;99.90
15407;DHT22;7802;51.568;6.364;2022-07-29T08:56:04;17.60;99.90
15407;DHT22;7802;51.568;6.364;2022-07-29T08:58:54;17.70;99.90
15407;DHT22;7802;51.568;6.364;2022-07-29T09:01:43;17.60;99.90
15407;DHT22;7802;51.568;6.364;2022-07-29T09:04:34;17.70;99.90
15407;DHT22;7802;51.568;6.364;2022-07-29T09:07:23;17.70;99.90
15407;DHT22;7802;51.568;6.364;2022-07-29T09:10:21;17.60;99.90
15407;DHT22;7802;51.568;6.364;2022-07-29T09:13:11;18.00;99.90
15407;DHT22;7802;51.568;6.364;2022-07-29T09:16:00;17.40;99.90
15407;DHT22;7802;51.568;6.364;2022-07-29T09:18:55;17.40;99.90
15407;DHT22;7802;51.568;6.364;2022-07-29T09:21:43;17.40;99.90
15407;DHT22;7802;51.568;6.364;2022-07-29T09:24:50;17.30;99.90
15407;DHT22;7802;51.568;6.364;2022-07-29T09:27:38;17.40;99.90
15407;DHT22;7802;51.568;6.364;2022-07-29T09:30:29;17.40;99.90
15407;DHT22;7802;51.568;6.364;2022-07-29T09:33:18;17.60;99.90
15407;DHT22;7802;51.568;6.364;2022-07-29T09:36:08;17.70;99.90
15407;DHT22;7802;51.568;6.364;2022-07-29T09:38:59;17.80;99.90
15407;DHT22;7802;51.568;6.364;2022-07-29T09:41:50;17.80;99.90
15407;DHT22;7802;51.568;6.364;2022-07-29T09:44:41;18.20;99.90
15407;DHT22;7802;51.568;6.364;2022-07-29T09:47:41;18.40;99.90
15407;DHT22;7802;51.568;6.364;2022-07-29T09:50:36;18.80;99.90
15407;DHT22;7802;51.568;6.364;2022-07-29T09:53:32;19.10;99.90
15407;DHT22;7802;51.568;6.364;2022-07-29T09:56:38;19.80;99.90
15407;DHT22;7802;51.568;6.364;2022-07-29T09:59:27;20.20;99.90
15407;DHT22;7802;51.568;6.364;2022-07-29T10:02:16;20.50;99.90
15407;DHT22;7802;51.568;6.364;2022-07-29T10:05:20;20.40;99.90
15407;DHT22;7802;51.568;6.364;2022-07-29T10:08:09;20.40;99.90
15407;DHT22;7802;51.568;6.364;2022-07-29T10:11:09;20.60;99.90
15407;DHT22;7802;51.568;6.364;2022-07-29T10:13:59;20.80;99.90
15407;DHT22;7802;51.568;6.364;2022-07-29T10:16:50;20.80;99.90
15407;DHT22;7802;51.568;6.364;2022-07-29T10:19:39;21.10;99.90
15407;DHT22;7802;51.568;6.364;2022-07-29T10:22:30;21.10;99.90
15407;DHT22;7802;51.568;6.364;2022-07-29T10:25:39;21.00;99.90
15407;DHT22;7802;51.568;6.364;2022-07-29T10:28:32;21.20;99.90
15407;DHT22;7802;51.568;6.364;2022-07-29T10:31:27;21.40;99.90
15407;DHT22;7802;51.568;6.364;2022-07-29T10:34:23;21.60;99.90
15407;DHT22;7802;51.568;6.364;2022-07-29T10:37:22;21.90;99.90
15407;DHT22;7802;51.568;6.364;2022-07-29T10:40:34;21.70;99.90
15407;DHT22;7802;51.568;6.364;2022-07-29T10:43:46;21.40;99.90
15407;DHT22;7802;51.568;6.364;2022-07-29T10:46:40;21.60;99.90
15407;DHT22;7802;51.568;6.364;2022-07-29T10:49:29;21.40;99.90
15407;DHT22;7802;51.568;6.364;2022-07-29T10:52:18;21.50;99.90
15407;DHT22;7802;51.568;6.364;2022-07-29T10:55:33;21.80;99.90
15407;DHT22;7802;51.568;6.364;2022-07-29T10:58:23;22.10;99.90
15407;DHT22;7802;51.568;6.364;2022-07-29T11:01:29;22.10;99.90
15407;DHT22;7802;51.568;6.364;2022-07-29T11:05:00;22.10;99.90
15407;DHT22;7802;51.568;6.364;2022-07-29T11:08:19;22.40;99.90
15407;DHT22;7802;51.568;6.364;2022-07-29T11:11:38;22.40;99.90
15407;DHT22;7802;51.568;6.364;2022-07-29T11:14:57;22.40;99.90
15407;DHT22;7802;51.568;6.364;2022-07-29T11:18:08;22.40;99.90
15407;DHT22;7802;51.568;6.364;2022-07-29T11:21:03;22.40;99.90
15407;DHT22;7802;51.568;6.364;2022-07-29T11:24:11;22.40;99.90
15407;DHT22;7802;51.568;6.364;2022-07-29T11:27:17;22.40;99.90
15407;DHT22;7802;51.568;6.364;2022-07-29T11:30:08;22.70;99.90
15407;DHT22;7802;51.568;6.364;2022-07-29T11:32:59;23.00;99.90
15407;DHT22;7802;51.568;6.364;2022-07-29T11:36:08;22.90;99.90
15407;DHT22;7802;51.568;6.364;2022-07-29T11:39:27;23.00;99.90
15407;DHT22;7802;51.568;6.364;2022-07-29T11:42:44;23.00;99.90
15407;DHT22;7802;51.568;6.364;2022-07-29T11:45:45;23.10;99.90
15407;DHT22;7802;51.568;6.364;2022-07-29T11:48:34;23.00;99.90
15407;DHT22;7802;51.568;6.364;2022-07-29T11:51:24;23.10;99.90
15407;DHT22;7802;51.568;6.364;2022-07-29T11:54:24;23.00;99.90
15407;DHT22;7802;51.568;6.364;2022-07-29T11:57:14;23.00;99.90
15407;DHT22;7802;51.568;6.364;2022-07-29T12:00:08;23.00;99.90
15407;DHT22;7802;51.568;6.364;2022-07-29T12:03:00;23.00;99.90
15407;DHT22;7802;51.568;6.364;2022-07-29T12:05:49;23.00;99.90
15407;DHT22;7802;51.568;6.364;2022-07-29T12:08:40;23.30;99.90
15407;DHT22;7802;51.568;6.364;2022-07-29T12:11:30;23.50;99.90
15407;DHT22;7802;51.568;6.364;2022-07-29T12:14:26;23.70;99.90
15407;DHT22;7802;51.568;6.364;2022-07-29T12:17:32;23.50;99.90
15407;DHT22;7802;51.568;6.364;2022-07-29T12:20:25;23.60;99.90
15407;DHT22;7802;51.568;6.364;2022-07-29T12:23:15;23.40;99.90
15407;DHT22;7802;51.568;6.364;2022-07-29T12:26:05;23.40;99.90
15407;DHT22;7802;51.568;6.364;2022-07-29T12:29:15;23.40;99.90
15407;DHT22;7802;51.568;6.364;2022-07-29T12:32:20;23.60;99.90
15407;DHT22;7802;51.568;6.364;2022-07-29T12:35:13;23.80;99.90
15407;DHT22;7802;51.568;6.364;2022-07-29T12:38:02;24.00;99.90
15407;DHT22;7802;51.568;6.364;2022-07-29T12:40:52;24.10;99.90
15407;DHT22;7802;51.568;6.364;2022-07-29T12:43:52;24.20;99.90
15407;DHT22;7802;51.568;6.364;2022-07-29T12:46:41;24.20;99.90
15407;DHT22;7802;51.568;6.364;2022-07-29T12:49:30;24.20;99.90
15407;DHT22;7802;51.568;6.364;2022-07-29T12:52:38;24.20;99.90
15407;DHT22;7802;51.568;6.364;2022-07-29T12:55:43;24.50;99.90
15407;DHT22;7802;51.568;6.364;2022-07-29T12:58:37;24.60;99.90
15407;DHT22;7802;51.568;6.364;2022-07-29T13:01:26;24.60;99.90
15407;DHT22;7802;51.568;6.364;2022-07-29T13:04:24;24.60;99.90
15407;DHT22;7802;51.568;6.364;2022-07-29T13:07:24;24.80;99.90
15407;DHT22;7802;51.568;6.364;2022-07-29T13:10:35;24.70;99.90
15407;DHT22;7802;51.568;6.364;2022-07-29T13:13:25;24.80;99.90
15407;DHT22;7802;51.568;6.364;2022-07-29T13:16:13;24.90;99.90
15407;DHT22;7802;51.568;6.364;2022-07-29T13:19:08;24.80;99.90
15407;DHT22;7802;51.568;6.364;2022-07-29T13:21:56;24.90;99.90
15407;DHT22;7802;51.568;6.364;2022-07-29T13:24:50;24.90;99.90
15407;DHT22;7802;51.568;6.364;2022-07-29T13:27:40;24.90;99.90
15407;DHT22;7802;51.568;6.364;2022-07-29T13:30:31;24.70;99.90
15407;DHT22;7802;51.568;6.364;2022-07-29T13:33:20;24.70;99.90
15407;DHT22;7802;51.568;6.364;2022-07-29T13:36:09;24.70;99.90
15407;DHT22;7802;51.568;6.364;2022-07-29T13:38:58;24.60;99.90
15407;DHT22;7802;51.568;6.364;2022-07-29T13:41:48;24.50;99.90
15407;DHT22;7802;51.568;6.364;2022-07-29T13:44:38;24.40;99.90
15407;DHT22;7802;51.568;6.364;2022-07-29T13:47:27;24.30;99.90
15407;DHT22;7802;51.568;6.364;2022-07-29T13:50:20;24.30;99.90
15407;DHT22;7802;51.568;6.364;2022-07-29T13:53:08;24.30;99.90
15407;DHT22;7802;51.568;6.364;2022-07-29T13:56:04;24.20;99.90
15407;DHT22;7802;51.568;6.364;2022-07-29T13:58:54;24.10;99.90
15407;DHT22;7802;51.568;6.364;2022-07-29T14:01:44;24.20;99.90
15407;DHT22;7802;51.568;6.364;2022-07-29T14:04:33;24.10;99.90
15407;DHT22;7802;51.568;6.364;2022-07-29T14:07:25;24.00;99.90
15407;DHT22;7802;51.568;6.364;2022-07-29T14:10:14;24.00;99.90
15407;DHT22;7802;51.568;6.364;2022-07-29T14:13:06;23.90;99.90
15407;DHT22;7802;51.568;6.364;2022-07-29T14:16:11;24.00;99.90
15407;DHT22;7802;51.568;6.364;2022-07-29T14:19:01;23.90;99.90
15407;DHT22;7802;51.568;6.364;2022-07-29T14:21:50;23.90;99.90
15407;DHT22;7802;51.568;6.364;2022-07-29T14:24:39;23.90;99.90
15407;DHT22;7802;51.568;6.364;2022-07-29T14:27:29;23.90;99.90
15407;DHT22;7802;51.568;6.364;2022-07-29T14:30:24;23.90;99.90
15407;DHT22;7802;51.568;6.364;2022-07-29T14:33:13;23.80;99.90
15407;DHT22;7802;51.568;6.364;2022-07-29T14:36:03;23.90;99.90
15407;DHT22;7802;51.568;6.364;2022-07-29T14:38:52;23.80;99.90
15407;DHT22;7802;51.568;6.364;2022-07-29T14:41:41;23.70;99.90
15407;DHT22;7802;51.568;6.364;2022-07-29T14:44:30;23.70;99.90
15407;DHT22;7802;51.568;6.364;2022-07-29T14:47:19;23.80;99.90
15407;DHT22;7802;51.568;6.364;2022-07-29T14:50:09;23.70;99.90
15407;DHT22;7802;51.568;6.364;2022-07-29T14:52:59;23.70;99.90
15407;DHT22;7802;51.568;6.364;2022-07-29T14:55:48;23.60;99.90
15407;DHT22;7802;51.568;6.364;2022-07-29T14:58:37;23.70;99.90
15407;DHT22;7802;51.568;6.364;2022-07-29T15:01:38;23.60;99.90
15407;DHT22;7802;51.568;6.364;2022-07-29T15:04:26;23.60;99.90
15407;DHT22;7802;51.568;6.364;2022-07-29T15:07:16;23.50;99.90
15407;DHT22;7802;51.568;6.364;2022-07-29T15:10:06;23.50;99.90
15407;DHT22;7802;51.568;6.364;2022-07-29T15:12:55;23.50;99.90
15407;DHT22;7802;51.568;6.364;2022-07-29T15:15:44;23.50;99.90
15407;DHT22;7802;51.568;6.364;2022-07-29T15:18:33;23.50;99.90
15407;DHT22;7802;51.568;6.364;2022-07-29T15:21:21;23.60;99.90
15407;DHT22;7802;51.568;6.364;2022-07-29T15:24:10;23.60;99.90
15407;DHT22;7802;51.568;6.364;2022-07-29T15:27:00;23.60;99.90
15407;DHT22;7802;51.568;6.364;2022-07-29T15:29:49;23.50;99.90
15407;DHT22;7802;51.568;6.364;2022-07-29T15:32:38;23.60;99.90
15407;DHT22;7802;51.568;6.364;2022-07-29T15:35:27;23.60;99.90
15407;DHT22;7802;51.568;6.364;2022-07-29T15:38:15;23.60;99.90
15407;DHT22;7802;51.568;6.364;2022-07-29T15:41:04;23.60;99.90
15407;DHT22;7802;51.568;6.364;2022-07-29T15:43:54;23.60;99.90
15407;DHT22;7802;51.568;6.364;2022-07-29T15:46:43;23.60;99.90
15407;DHT22;7802;51.568;6.364;2022-07-29T15:49:49;23.70;99.90
15407;DHT22;7802;51.568;6.364;2022-07-29T15:52:38;23.70;99.90
15407;DHT22;7802;51.568;6.364;2022-07-29T15:55:27;23.70;99.90
15407;DHT22;7802;51.568;6.364;2022-07-29T15:58:16;23.70;99.90
15407;DHT22;7802;51.568;6.364;2022-07-29T16:01:06;23.70;99.90
15407;DHT22;7802;51.568;6.364;2022-07-29T16:03:55;23.60;99.90
15407;DHT22;7802;51.568;6.364;2022-07-29T16:06:45;23.60;99.90
15407;DHT22;7802;51.568;6.364;2022-07-29T16:09:36;23.60;99.90
15407;DHT22;7802;51.568;6.364;2022-07-29T16:12:24;23.60;99.90
15407;DHT22;7802;51.568;6.364;2022-07-29T16:15:13;23.70;99.90
15407;DHT22;7802;51.568;6.364;2022-07-29T16:18:03;23.70;99.90
15407;DHT22;7802;51.568;6.364;2022-07-29T16:20:52;23.60;99.90
15407;DHT22;7802;51.568;6.364;2022-07-29T16:23:41;23.60;99.90
15407;DHT22;7802;51.568;6.364;2022-07-29T16:26:30;23.60;99.90
15407;DHT22;7802;51.568;6.364;2022-07-29T16:29:19;23.50;99.90
15407;DHT22;7802;51.568;6.364;2022-07-29T16:32:07;23.60;99.90
15407;DHT22;7802;51.568;6.364;2022-07-29T16:34:58;23.70;99.90
15407;DHT22;7802;51.568;6.364;2022-07-29T16:37:48;23.70;99.90
15407;DHT22;7802;51.568;6.364;2022-07-29T16:40:37;23.60;99.90
15407;DHT22;7802;51.568;6.364;2022-07-29T16:43:25;23.60;99.90
15407;DHT22;7802;51.568;6.364;2022-07-29T16:46:14;23.50;99.90
15407;DHT22;7802;51.568;6.364;2022-07-29T16:49:06;23.40;99.90
15407;DHT22;7802;51.568;6.364;2022-07-29T16:51:56;23.40;99.90
15407;DHT22;7802;51.568;6.364;2022-07-29T16:54:45;23.30;99.90
15407;DHT22;7802;51.568;6.364;2022-07-29T16:57:34;23.30;99.90
15407;DHT22;7802;51.568;6.364;2022-07-29T17:00:23;23.30;99.90
15407;DHT22;7802;51.568;6.364;2022-07-29T17:03:11;23.30;99.90
15407;DHT22;7802;51.568;6.364;2022-07-29T17:06:00;23.30;99.90
15407;DHT22;7802;51.568;6.364;2022-07-29T17:08:50;23.30;99.90
15407;DHT22;7802;51.568;6.364;2022-07-29T17:11:38;23.30;99.90
15407;DHT22;7802;51.568;6.364;2022-07-29T17:14:40;23.20;99.90
15407;DHT22;7802;51.568;6.364;2022-07-29T17:17:28;23.20;99.90
15407;DHT22;7802;51.568;6.364;2022-07-29T17:20:25;23.20;99.90
15407;DHT22;7802;51.568;6.364;2022-07-29T17:23:15;23.20;99.90
15407;DHT22;7802;51.568;6.364;2022-07-29T17:26:05;23.00;99.90
15407;DHT22;7802;51.568;6.364;2022-07-29T17:28:54;23.10;99.90
15407;DHT22;7802;51.568;6.364;2022-07-29T17:31:43;23.20;99.90
15407;DHT22;7802;51.568;6.364;2022-07-29T17:34:31;23.20;99.90
15407;DHT22;7802;51.568;6.364;2022-07-29T17:37:21;23.10;99.90
15407;DHT22;7802;51.568;6.364;2022-07-29T17:40:10;23.10;99.90
15407;DHT22;7802;51.568;6.364;2022-07-29T17:43:01;23.10;99.90
15407;DHT22;7802;51.568;6.364;2022-07-29T17:45:52;23.10;99.90
15407;DHT22;7802;51.568;6.364;2022-07-29T17:48:45;23.10;99.90
15407;DHT22;7802;51.568;6.364;2022-07-29T17:51:34;23.00;99.90
15407;DHT22;7802;51.568;6.364;2022-07-29T17:54:23;23.10;99.90
15407;DHT22;7802;51.568;6.364;2022-07-29T17:57:12;23.00;99.90
15407;DHT22;7802;51.568;6.364;2022-07-29T18:00:04;23.10;99.90
15407;DHT22;7802;51.568;6.364;2022-07-29T18:02:54;23.00;99.90
15407;DHT22;7802;51.568;6.364;2022-07-29T18:05:43;22.90;99.90
15407;DHT22;7802;51.568;6.364;2022-07-29T18:08:32;22.90;99.90
15407;DHT22;7802;51.568;6.364;2022-07-29T18:11:21;22.80;99.90
15407;DHT22;7802;51.568;6.364;2022-07-29T18:14:10;22.80;99.90
15407;DHT22;7802;51.568;6.364;2022-07-29T18:17:00;22.80;99.90
15407;DHT22;7802;51.568;6.364;2022-07-29T18:19:48;22.70;99.90
15407;DHT22;7802;51.568;6.364;2022-07-29T18:22:39;22.60;99.90
15407;DHT22;7802;51.568;6.364;2022-07-29T18:25:28;22.60;99.90
15407;DHT22;7802;51.568;6.364;2022-07-29T18:28:16;22.40;99.90